Карточка аэропорта UNKL

Внимание!
Информация на этой странице в стадии наполнения.
Если вы не увидели какой-то информации, или заметили неточность - пожалуйста сообщите нам!
Спасибо!
Команда RU-STAFF
Название аэропортаЕмельяново
Название аэропорта (англ.)Yemelyanovo
Превышение942 ft. (287.1 m.)
Координаты56°10.386', 92°29.598'
Высота перехода1200m
Эшелон переходаQFE>=729mm: FL060; QFE<729mm: FL070
Коды ответчика5320-5377
Зона ОрВДКрасноярск РПИ (UNKL)
Данные METARUNKL 041130Z 23001MPS 3100 BR NSC M15/M17 Q1025 R11/CLRD65 NOSIG RMK QFE743
Проноз погоды (TAF)UNKL 040929Z 0409/0509 10003MPS 2400 BR SCT017 BECMG 0410/0412 6000 NSW TEMPO 0412/0415 2000 BR
NOTAMshow/hide NOTAM
AWOS   TABLE

Информация о ВПП

ВПП Длина ВПП (м.) Покрытие Курс ВПП Частота ILS
113700Асфальтобетон109110.5
293700Асфальтобетон289111.7

Диспетчерские позиции

Позывной Наименование органа УВД Частота
UNKL_TWRКрасноярск-Старт/Посадка118.3
UNKL_R_APPКрасноярск-Круг122.0
UNKL_GNDКрасноярск-Руление121.9
UNKL_APPКрасноярск-Подход127.7



Спутниковое изображение